createdAt,value
2018-08-20T00:02:07.156Z,13.57
2018-08-20T00:04:42.330Z,12.97
2018-08-20T00:07:12.373Z,12.23
2018-08-20T00:09:47.707Z,14.03
2018-08-20T00:12:20.209Z,15.03
2018-08-20T00:14:50.115Z,14.83
2018-08-20T00:17:20.089Z,14.57
2018-08-20T00:19:50.058Z,13.90
2018-08-20T00:22:20.347Z,14.57
2018-08-20T00:25:02.198Z,14.03
2018-08-20T00:27:33.233Z,15.73
2018-08-20T00:30:03.300Z,17.83
2018-08-20T00:32:33.165Z,17.23
2018-08-20T00:35:03.048Z,17.10
2018-08-20T00:37:32.945Z,18.10
2018-08-20T00:40:04.793Z,15.70
2018-08-20T00:42:34.783Z,15.43
2018-08-20T00:45:05.859Z,16.73
2018-08-20T00:47:36.289Z,17.53
2018-08-20T00:50:07.184Z,15.07
2018-08-20T00:52:37.474Z,16.67
2018-08-20T00:55:09.317Z,16.50
2018-08-20T00:57:39.206Z,18.23
2018-08-20T01:00:11.045Z,18.60
2018-08-20T01:02:41.490Z,15.77
2018-08-20T01:05:11.427Z,16.37
2018-08-20T01:07:41.489Z,16.67
2018-08-20T01:10:11.396Z,18.03
2018-08-20T01:12:41.430Z,21.13
2018-08-20T01:15:11.752Z,20.97
2018-08-20T01:17:41.732Z,15.60
2018-08-20T01:20:11.837Z,14.97
2018-08-20T01:22:41.741Z,15.57
2018-08-20T01:25:12.236Z,16.10
2018-08-20T01:27:46.262Z,15.10
2018-08-20T01:30:16.369Z,15.07
2018-08-20T01:32:46.275Z,15.97
2018-08-20T01:35:26.796Z,14.83
2018-08-20T01:37:57.181Z,16.10
2018-08-20T01:40:27.291Z,16.03
2018-08-20T01:42:57.330Z,17.23
2018-08-20T01:45:27.659Z,16.63
2018-08-20T01:47:57.610Z,15.03
2018-08-20T01:50:27.525Z,16.63
2018-08-20T01:52:57.461Z,13.90
2018-08-20T01:55:27.410Z,15.27
2018-08-20T01:57:57.299Z,17.13
2018-08-20T02:00:27.709Z,11.27
2018-08-20T02:03:01.799Z,15.27
2018-08-20T02:05:31.830Z,20.60
2018-08-20T02:08:02.190Z,15.60
2018-08-20T02:10:32.332Z,16.70
2018-08-20T02:13:02.517Z,16.37
2018-08-20T02:15:32.995Z,13.23
2018-08-20T02:18:03.093Z,13.07
2018-08-20T02:20:33.118Z,15.73
2018-08-20T02:23:03.151Z,16.47
2018-08-20T02:25:33.022Z,13.43
2018-08-20T02:28:03.168Z,15.20
2018-08-20T02:30:33.201Z,13.40
2018-08-20T02:33:03.199Z,13.53
2018-08-20T02:35:33.550Z,14.90
2018-08-20T02:38:03.519Z,14.73
2018-08-20T02:40:34.701Z,12.43
2018-08-20T02:43:04.862Z,10.97
2018-08-20T02:45:35.420Z,12.30
2018-08-20T02:48:05.621Z,12.13
2018-08-20T02:50:35.570Z,18.43
2018-08-20T02:53:05.739Z,13.10
2018-08-20T02:55:35.700Z,10.87
2018-08-20T02:58:06.404Z,17.23
2018-08-20T03:00:36.578Z,13.60
2018-08-20T03:03:06.761Z,19.37
2018-08-20T03:05:36.759Z,17.30
2018-08-20T03:08:07.046Z,16.87
2018-08-20T03:10:36.998Z,14.63
2018-08-20T03:13:07.611Z,17.53
2018-08-20T03:15:37.570Z,16.13
2018-08-20T03:18:07.551Z,17.23
2018-08-20T03:20:37.457Z,14.70
2018-08-20T03:23:07.802Z,13.97
2018-08-20T03:25:37.809Z,17.10
2018-08-20T03:28:08.506Z,20.40
2018-08-20T03:30:39.021Z,19.13
2018-08-20T03:33:09.214Z,16.03
2018-08-20T03:35:39.234Z,16.83
2018-08-20T03:38:09.340Z,19.93
2018-08-20T03:40:39.767Z,18.53
2018-08-20T03:43:09.794Z,20.73
2018-08-20T03:45:39.813Z,17.67
2018-08-20T03:48:09.959Z,19.77
2018-08-20T03:50:40.159Z,19.23
2018-08-20T03:53:10.143Z,19.80
2018-08-20T03:55:40.646Z,20.47
2018-08-20T03:58:10.877Z,21.47
2018-08-20T04:00:40.931Z,21.23
2018-08-20T04:03:11.881Z,21.33
2018-08-20T04:05:41.914Z,22.93
2018-08-20T04:08:11.999Z,19.17
2018-08-20T04:10:42.462Z,16.80
2018-08-20T04:13:12.857Z,17.60
2018-08-20T04:15:43.071Z,20.57
2018-08-20T04:18:13.057Z,17.73
2018-08-20T04:20:44.534Z,21.47
2018-08-20T04:23:14.642Z,20.77
2018-08-20T04:25:44.589Z,20.63
2018-08-20T04:28:14.771Z,21.43
2018-08-20T04:30:44.682Z,21.40
2018-08-20T04:33:14.821Z,22.77
2018-08-20T04:35:44.937Z,20.27
2018-08-20T04:38:14.849Z,16.10
2018-08-20T04:40:45.141Z,19.87
2018-08-20T04:43:15.183Z,21.13
2018-08-20T04:45:45.067Z,19.07
2018-08-20T04:48:14.990Z,20.73
2018-08-20T04:50:44.925Z,17.77
2018-08-20T04:53:14.926Z,18.93
2018-08-20T04:55:45.212Z,18.77
2018-08-20T04:58:15.610Z,18.70
2018-08-20T05:00:45.521Z,19.57
2018-08-20T05:03:17.454Z,19.07
2018-08-20T05:05:47.335Z,17.60
2018-08-20T05:08:17.518Z,16.47
2018-08-20T05:10:47.883Z,19.77
2018-08-20T05:13:17.750Z,17.50
2018-08-20T05:15:47.623Z,16.37
2018-08-20T05:18:17.484Z,17.53
2018-08-20T05:21:50.115Z,17.13
2018-08-20T05:24:21.110Z,15.33
2018-08-20T05:26:51.117Z,17.03
2018-08-20T05:29:21.572Z,15.07
2018-08-20T05:31:51.996Z,12.03
2018-08-20T05:34:23.124Z,13.23
2018-08-20T05:36:53.158Z,12.30
2018-08-20T05:39:23.425Z,12.73
2018-08-20T05:41:53.446Z,11.00
2018-08-20T05:44:23.702Z,12.57
2018-08-20T05:46:53.893Z,12.23
2018-08-20T05:49:23.887Z,14.10
2018-08-20T05:51:53.864Z,12.47
2018-08-20T05:54:23.820Z,13.77
2018-08-20T05:56:54.241Z,9.87
2018-08-20T05:59:24.487Z,14.07
2018-08-20T06:01:54.642Z,13.70
2018-08-20T06:04:24.531Z,9.20
2018-08-20T06:06:54.470Z,12.60
2018-08-20T06:09:24.551Z,10.97
2018-08-20T06:11:54.965Z,10.53
2018-08-20T06:14:24.865Z,12.67
2018-08-20T06:16:54.881Z,11.03
2018-08-20T06:19:26.502Z,11.77
2018-08-20T06:21:57.667Z,18.50
2018-08-20T06:24:27.945Z,14.73
2018-08-20T06:26:57.835Z,13.87
2018-08-20T06:29:27.746Z,16.10
2018-08-20T06:31:57.671Z,18.57
2018-08-20T06:34:28.231Z,18.87
2018-08-20T06:36:58.535Z,20.20
2018-08-20T06:39:30.674Z,19.50
2018-08-20T06:42:02.683Z,16.40
2018-08-20T06:44:32.982Z,18.97
2018-08-20T06:47:03.027Z,14.43
2018-08-20T06:49:33.498Z,14.50
2018-08-20T06:52:04.365Z,13.97
2018-08-20T06:54:35.074Z,11.57
2018-08-20T06:57:05.242Z,12.13
2018-08-20T06:59:35.710Z,13.63
2018-08-20T07:02:05.827Z,12.07
2018-08-20T07:04:35.789Z,12.93
2018-08-20T07:07:05.775Z,12.07
2018-08-20T07:09:35.670Z,9.20
2018-08-20T07:12:05.692Z,8.80
2018-08-20T07:14:36.051Z,11.37
2018-08-20T07:17:05.942Z,8.80
2018-08-20T07:19:36.549Z,6.90
2018-08-20T07:22:06.522Z,9.30
2018-08-20T07:24:36.397Z,9.53
2018-08-20T07:27:06.998Z,6.07
2018-08-20T07:29:41.468Z,8.77
2018-08-20T07:32:12.793Z,7.20
2018-08-20T07:34:44.608Z,7.57
2018-08-20T07:37:15.990Z,6.20
2018-08-20T07:39:47.111Z,7.57
2018-08-20T07:42:17.036Z,8.33
2018-08-20T07:44:47.531Z,7.53
2018-08-20T07:47:17.399Z,7.40
2018-08-20T07:49:47.717Z,7.37
2018-08-20T07:52:17.622Z,5.73
2018-08-20T07:54:48.058Z,6.63
2018-08-20T07:57:18.694Z,6.77
2018-08-20T07:59:49.017Z,6.63
2018-08-20T08:02:19.144Z,7.67
2018-08-20T08:04:49.393Z,8.20
2018-08-20T08:07:19.798Z,2.67
2018-08-20T08:09:51.088Z,4.03
2018-08-20T08:12:21.877Z,3.97
2018-08-20T08:14:51.874Z,1.83
2018-08-20T08:17:21.816Z,3.07
2018-08-20T08:19:52.552Z,3.23
2018-08-20T08:22:22.602Z,2.13
2018-08-20T08:24:52.590Z,2.03
2018-08-20T08:27:22.918Z,2.43
2018-08-20T08:29:52.801Z,3.23
2018-08-20T08:32:23.002Z,1.83
2018-08-20T08:34:53.090Z,3.33
2018-08-20T08:37:23.048Z,4.87
2018-08-20T08:39:53.014Z,1.50
2018-08-20T08:42:23.405Z,2.67
2018-08-20T08:44:53.462Z,2.53
2018-08-20T08:47:23.350Z,4.30
2018-08-20T08:49:53.289Z,1.40
2018-08-20T08:52:23.310Z,3.00
2018-08-20T08:54:53.222Z,3.07
2018-08-20T08:57:23.174Z,1.87
2018-08-20T08:59:53.494Z,2.87
2018-08-20T09:02:23.407Z,2.70
2018-08-20T09:04:53.348Z,3.97
2018-08-20T09:07:23.265Z,2.17
2018-08-20T09:09:53.603Z,2.63
2018-08-20T09:12:25.255Z,3.33
2018-08-20T09:14:56.104Z,3.40
2018-08-20T09:17:26.120Z,2.23
2018-08-20T09:19:57.114Z,1.73
2018-08-20T09:22:28.027Z,2.20
2018-08-20T09:24:59.783Z,2.37
2018-08-20T09:27:37.728Z,2.07
2018-08-20T09:30:13.606Z,3.03
2018-08-20T09:32:43.977Z,2.40
2018-08-20T09:35:13.950Z,3.50
2018-08-20T09:37:45.344Z,2.60
2018-08-20T09:40:16.158Z,2.60
2018-08-20T09:42:46.130Z,3.47
2018-08-20T09:45:16.792Z,4.23
2018-08-20T09:47:48.535Z,1.97
2018-08-20T09:50:18.585Z,3.13
2018-08-20T09:52:48.565Z,1.37
2018-08-20T09:55:18.494Z,2.07
2018-08-20T09:57:48.466Z,2.17
2018-08-20T10:00:23.876Z,4.07
2018-08-20T10:02:53.848Z,3.70
2018-08-20T10:05:24.009Z,5.47
2018-08-20T10:07:54.207Z,1.80
2018-08-20T10:10:24.945Z,4.07
2018-08-20T10:12:54.919Z,3.83
2018-08-20T10:15:25.788Z,2.17
2018-08-20T10:17:55.797Z,3.70
2018-08-20T10:20:26.604Z,3.73
2018-08-20T10:22:56.652Z,2.23
2018-08-20T10:25:28.358Z,2.37
2018-08-20T10:27:58.656Z,1.00
2018-08-20T10:30:28.625Z,1.70
2018-08-20T10:33:00.307Z,1.23
2018-08-20T10:35:30.285Z,1.23
2018-08-20T10:38:00.343Z,0.83
2018-08-20T10:40:30.613Z,2.50
2018-08-20T10:43:00.574Z,1.17
2018-08-20T10:45:35.862Z,0.70
2018-08-20T10:48:06.637Z,1.93
2018-08-20T10:50:36.537Z,1.67
2018-08-20T10:53:06.642Z,0.80
2018-08-20T10:55:36.966Z,2.13
2018-08-20T10:58:07.088Z,1.20
2018-08-20T11:00:36.987Z,1.23
2018-08-20T11:03:07.350Z,1.83
2018-08-20T11:05:37.430Z,2.13
2018-08-20T11:08:07.661Z,3.40
2018-08-20T11:10:37.845Z,1.73
2018-08-20T11:13:07.793Z,2.10
2018-08-20T11:15:38.022Z,1.97
2018-08-20T11:18:07.972Z,1.90
2018-08-20T11:20:37.846Z,3.00
2018-08-20T11:23:07.950Z,1.80
2018-08-20T11:25:38.099Z,2.50
2018-08-20T11:28:08.067Z,5.90
2018-08-20T11:30:37.977Z,7.27
2018-08-20T11:33:08.250Z,3.97
2018-08-20T11:35:38.246Z,2.90
2018-08-20T11:38:08.386Z,4.13
2018-08-20T11:40:38.543Z,5.53
2018-08-20T11:43:08.667Z,4.13
2018-08-20T11:45:38.729Z,4.27
2018-08-20T11:48:09.082Z,4.63
2018-08-20T11:50:39.087Z,4.20
2018-08-20T11:53:09.563Z,6.13
2018-08-20T11:55:39.812Z,3.53
2018-08-20T11:58:09.752Z,2.20
2018-08-20T12:00:39.629Z,4.20
2018-08-20T12:03:09.749Z,3.73
2018-08-20T12:05:39.666Z,3.73
2018-08-20T12:08:09.667Z,3.13
2018-08-20T12:10:39.870Z,2.93
2018-08-20T12:13:10.861Z,3.30
2018-08-20T12:15:40.987Z,2.57
2018-08-20T12:18:10.962Z,5.67
2018-08-20T12:20:41.342Z,3.63
2018-08-20T12:23:11.338Z,3.33
2018-08-20T12:25:41.279Z,3.83
2018-08-20T12:28:11.523Z,3.37
2018-08-20T12:30:41.567Z,4.80
2018-08-20T12:33:12.153Z,4.00
2018-08-20T12:35:42.502Z,4.50
2018-08-20T12:38:12.450Z,2.20
2018-08-20T12:40:42.713Z,4.40
2018-08-20T12:43:12.828Z,3.43
2018-08-20T12:45:42.781Z,5.17
2018-08-20T12:48:12.721Z,4.40
2018-08-20T12:50:42.797Z,5.43
2018-08-20T12:53:13.318Z,4.90
2018-08-20T12:55:43.198Z,7.30
2018-08-20T12:58:13.195Z,3.40
2018-08-20T13:00:43.489Z,4.33
2018-08-20T13:03:13.504Z,3.80
2018-08-20T13:05:43.410Z,5.17
2018-08-20T13:08:14.628Z,3.30
2018-08-20T13:10:44.798Z,8.87
2018-08-20T13:13:14.798Z,4.37
2018-08-20T13:15:46.013Z,3.63
2018-08-20T13:18:16.073Z,5.57
2018-08-20T13:20:46.014Z,5.00
2018-08-20T13:23:16.276Z,4.63
2018-08-20T13:25:46.424Z,4.43
2018-08-20T13:28:16.722Z,4.97
2018-08-20T13:30:48.158Z,3.03
2018-08-20T13:33:18.130Z,3.80
2018-08-20T13:35:48.418Z,4.87
2018-08-20T13:38:18.634Z,4.67
2018-08-20T13:40:49.049Z,4.17
2018-08-20T13:43:19.032Z,6.03
2018-08-20T13:45:49.331Z,3.77
2018-08-20T13:48:19.255Z,5.23
2018-08-20T13:50:50.204Z,1.70
2018-08-20T13:53:20.558Z,3.67
2018-08-20T13:55:50.564Z,2.43
2018-08-20T13:58:20.577Z,2.97
2018-08-20T14:00:50.562Z,2.07
2018-08-20T14:03:20.481Z,1.93
2018-08-20T14:05:50.507Z,1.50
2018-08-20T14:08:20.806Z,1.37
2018-08-20T14:10:50.795Z,2.23
2018-08-20T14:13:21.192Z,2.53
2018-08-20T14:15:51.255Z,1.97
2018-08-20T14:18:21.632Z,4.63
2018-08-20T14:21:02.137Z,2.73
2018-08-20T14:23:32.165Z,1.40
2018-08-20T14:26:02.303Z,1.20
2018-08-20T14:28:32.722Z,2.07
2018-08-20T14:31:02.827Z,2.27
2018-08-20T14:33:32.755Z,1.80
2018-08-20T14:36:03.142Z,1.93
2018-08-20T14:38:33.857Z,1.20
2018-08-20T14:41:04.334Z,3.67
2018-08-20T14:43:34.560Z,2.77
2018-08-20T14:46:10.361Z,1.63
2018-08-20T14:48:40.331Z,2.30
2018-08-20T14:51:10.590Z,3.53
2018-08-20T14:53:40.991Z,2.67
2018-08-20T14:56:11.164Z,2.93
2018-08-20T14:58:41.333Z,2.27
2018-08-20T15:01:11.429Z,4.63
2018-08-20T15:03:41.677Z,4.93
2018-08-20T15:06:12.583Z,3.47
2018-08-20T15:08:48.517Z,4.97
2018-08-20T15:11:18.791Z,3.50
2018-08-20T15:13:48.964Z,3.67
2018-08-20T15:16:20.016Z,2.63
2018-08-20T15:22:11.717Z,3.47
2018-08-20T15:24:42.017Z,3.43
2018-08-20T15:27:13.069Z,3.90
2018-08-20T15:29:43.754Z,2.10
2018-08-20T15:32:15.724Z,3.03
2018-08-20T15:34:45.697Z,3.00
2018-08-20T15:37:16.676Z,4.07
2018-08-20T15:39:46.839Z,5.80
2018-08-20T15:42:17.750Z,2.37
2018-08-20T15:44:48.246Z,5.10
2018-08-20T15:47:18.194Z,5.20
2018-08-20T15:49:49.023Z,6.67
2018-08-20T15:52:19.639Z,6.80
2018-08-20T15:54:50.589Z,7.67
2018-08-20T15:57:20.852Z,5.80
2018-08-20T15:59:51.322Z,7.17
2018-08-20T16:02:21.339Z,4.90
2018-08-20T16:04:51.230Z,5.47
2018-08-20T16:07:21.834Z,5.87
2018-08-20T16:09:51.734Z,6.43
2018-08-20T16:12:21.639Z,3.87
2018-08-20T16:14:52.062Z,6.73
2018-08-20T16:17:22.051Z,6.30
2018-08-20T16:19:51.965Z,4.57
2018-08-20T16:22:22.328Z,5.70
2018-08-20T16:24:52.290Z,4.60
2018-08-20T16:27:22.681Z,5.73
2018-08-20T16:29:53.124Z,3.40
2018-08-20T16:32:23.393Z,4.70
2018-08-20T16:34:53.511Z,4.47
2018-08-20T16:37:23.846Z,4.63
2018-08-20T16:39:53.966Z,5.50
2018-08-20T16:42:24.854Z,5.80
2018-08-20T16:44:54.816Z,5.57
2018-08-20T16:47:25.657Z,6.53
2018-08-20T16:49:55.606Z,4.27
2018-08-20T16:52:25.870Z,7.00
2018-08-20T16:54:55.777Z,3.63
2018-08-20T16:57:25.812Z,4.43
2018-08-20T16:59:56.809Z,5.43
2018-08-20T17:02:31.074Z,4.93
2018-08-20T17:05:01.208Z,4.97
2018-08-20T17:07:31.454Z,5.10
2018-08-20T17:10:01.464Z,2.77
2018-08-20T17:12:31.388Z,4.37
2018-08-20T17:15:01.801Z,2.37
2018-08-20T17:17:31.883Z,2.90
2018-08-20T17:20:01.829Z,2.90
2018-08-20T17:22:31.721Z,2.60
2018-08-20T17:25:02.013Z,5.63
2018-08-20T17:27:31.941Z,3.53
2018-08-20T17:30:02.323Z,4.37
2018-08-20T17:32:32.593Z,7.07
2018-08-20T17:35:02.711Z,4.77
2018-08-20T17:37:32.649Z,6.53
2018-08-20T17:40:05.433Z,6.63
2018-08-20T17:42:35.729Z,5.37
2018-08-20T17:45:06.217Z,7.87
2018-08-20T17:47:39.315Z,6.43
2018-08-20T17:50:21.469Z,7.27
2018-08-20T17:52:51.814Z,10.60
2018-08-20T17:55:21.797Z,8.50
2018-08-20T17:57:51.718Z,9.27
2018-08-20T18:00:34.770Z,8.30
2018-08-20T18:03:04.954Z,7.17
2018-08-20T18:05:35.232Z,6.63
2018-08-20T18:08:05.085Z,9.73
2018-08-20T18:10:34.970Z,8.27
2018-08-20T18:13:05.446Z,5.57
2018-08-20T18:15:35.343Z,6.73
2018-08-20T18:18:05.262Z,6.97
2018-08-20T18:20:40.014Z,9.73
2018-08-20T18:23:11.247Z,11.50
2018-08-20T18:25:42.503Z,8.73
2018-08-20T18:28:12.484Z,8.90
2018-08-20T18:30:42.366Z,8.27
2018-08-20T18:33:12.322Z,9.03
2018-08-20T18:35:42.247Z,9.60
2018-08-20T18:38:12.689Z,5.63
2018-08-20T18:40:42.671Z,7.53
2018-08-20T18:43:12.599Z,9.03
2018-08-20T18:45:42.506Z,11.20
2018-08-20T18:48:12.404Z,9.77
2018-08-20T18:50:43.010Z,8.33
2018-08-20T18:53:13.250Z,12.10
2018-08-20T18:55:52.787Z,12.63
2018-08-20T18:58:23.860Z,11.80
2018-08-20T19:00:53.766Z,10.00
2018-08-20T19:03:23.935Z,6.60
2018-08-20T19:05:54.314Z,14.67
2018-08-20T19:08:25.258Z,14.67
2018-08-20T19:10:55.162Z,6.77
2018-08-20T19:13:25.481Z,9.87
2018-08-20T19:15:55.582Z,9.37
2018-08-20T19:18:31.406Z,7.77
2018-08-20T19:21:01.463Z,8.23
2018-08-20T19:23:31.422Z,6.13
2018-08-20T19:26:01.394Z,8.17
2018-08-20T19:28:33.069Z,11.40
2018-08-20T19:31:03.012Z,6.83
2018-08-20T19:33:33.098Z,5.43
2018-08-20T19:36:04.379Z,5.37
2018-08-20T19:38:34.358Z,7.10
2018-08-20T19:41:09.112Z,9.47
2018-08-20T19:43:44.877Z,7.40
2018-08-20T19:46:15.957Z,7.33
2018-08-20T19:48:46.116Z,6.00
2018-08-20T19:51:15.998Z,6.53
2018-08-20T19:53:45.908Z,7.43
2018-08-20T19:56:15.830Z,10.80
2018-08-20T19:58:45.883Z,9.20
2018-08-20T20:01:18.287Z,7.00
2018-08-20T20:03:49.798Z,6.10
2018-08-20T20:06:19.856Z,7.47
2018-08-20T20:08:49.752Z,4.67
2018-08-20T20:11:25.261Z,6.30
2018-08-20T20:13:57.625Z,7.73
2018-08-20T20:16:31.933Z,8.10
2018-08-20T20:19:02.043Z,8.07
2018-08-20T20:21:37.398Z,8.23
2018-08-20T20:24:08.350Z,5.93
2018-08-20T20:26:38.346Z,8.70
2018-08-20T20:29:12.391Z,5.93
2018-08-20T20:31:43.475Z,9.47
2018-08-20T20:34:13.533Z,5.47
2018-08-20T20:36:43.434Z,3.60
2018-08-20T20:39:17.817Z,5.87
2018-08-20T20:41:48.089Z,6.27
2018-08-20T20:44:18.018Z,5.03
2018-08-20T20:46:47.946Z,8.93
2018-08-20T20:49:18.421Z,5.53
2018-08-20T20:51:48.320Z,3.60
2018-08-20T20:54:18.245Z,7.10
2018-08-20T20:56:48.588Z,8.50
2018-08-20T20:59:18.522Z,7.97
2018-08-20T21:01:48.414Z,4.40
2018-08-20T21:04:18.608Z,5.67
2018-08-20T21:06:48.511Z,4.73
2018-08-20T21:09:18.459Z,8.50
2018-08-20T21:11:48.420Z,5.77
2018-08-20T21:14:18.294Z,8.13
2018-08-20T21:16:48.662Z,10.20
2018-08-20T21:19:18.630Z,6.70
2018-08-20T21:21:48.544Z,6.97
2018-08-20T21:24:18.417Z,6.10
2018-08-20T21:26:48.590Z,12.57
2018-08-20T21:29:18.554Z,7.33
2018-08-20T21:31:52.610Z,7.03
2018-08-20T21:34:25.383Z,6.90
2018-08-20T21:36:55.344Z,6.87
2018-08-20T21:39:25.236Z,5.77
2018-08-20T21:41:55.682Z,6.70
2018-08-20T21:44:25.665Z,6.13
2018-08-20T21:46:55.575Z,4.27
2018-08-20T21:49:26.031Z,4.10
2018-08-20T21:51:59.038Z,7.10
2018-08-20T21:54:33.969Z,11.20
2018-08-20T21:57:03.934Z,7.87
2018-08-20T21:59:33.843Z,6.97
2018-08-20T22:02:04.440Z,4.53
2018-08-20T22:04:34.524Z,5.30
2018-08-20T22:07:04.562Z,8.53
2018-08-20T22:09:34.474Z,9.37
2018-08-20T22:12:04.473Z,11.33
2018-08-20T22:14:34.402Z,5.80
2018-08-20T22:17:04.657Z,5.53
2018-08-20T22:19:34.622Z,7.37
2018-08-20T22:22:04.566Z,8.73
2018-08-20T22:24:34.670Z,7.13
2018-08-20T22:27:05.074Z,11.13
2018-08-20T22:29:39.997Z,6.00
2018-08-20T22:32:10.399Z,8.23
2018-08-20T22:34:40.799Z,6.30
2018-08-20T22:37:10.667Z,6.47
2018-08-20T22:39:40.590Z,5.33
2018-08-20T22:42:10.850Z,11.73
2018-08-20T22:44:40.957Z,9.37
2018-08-20T22:47:11.110Z,7.60
2018-08-20T22:49:41.376Z,7.87
2018-08-20T22:52:13.167Z,11.90
2018-08-20T22:54:43.090Z,5.83
2018-08-20T22:57:13.580Z,5.87
2018-08-20T22:59:43.475Z,8.33
2018-08-20T23:02:13.730Z,9.83
2018-08-20T23:04:46.320Z,6.50
2018-08-20T23:07:17.106Z,8.70
2018-08-20T23:09:47.098Z,8.73
2018-08-20T23:12:17.298Z,8.93
2018-08-20T23:14:47.187Z,6.87
2018-08-20T23:17:17.335Z,7.87
2018-08-20T23:19:47.506Z,5.10
2018-08-20T23:22:17.401Z,6.17
2018-08-20T23:24:51.393Z,5.43
2018-08-20T23:27:25.122Z,4.10
2018-08-20T23:29:55.352Z,6.43
2018-08-20T23:32:25.493Z,5.23
2018-08-20T23:34:56.605Z,5.37
2018-08-20T23:37:26.770Z,5.83
2018-08-20T23:39:57.258Z,3.83
2018-08-20T23:42:27.617Z,9.27
2018-08-20T23:44:57.995Z,4.40
2018-08-20T23:47:27.903Z,6.10
2018-08-20T23:49:57.814Z,7.23
2018-08-20T23:52:27.722Z,6.60
2018-08-20T23:54:58.026Z,4.17
2018-08-20T23:57:27.978Z,5.50
2018-08-20T23:59:57.856Z,12.40
